createdAt,value
2018-07-20T00:00:24.182Z,26.00
2018-07-20T00:02:50.614Z,26.00
2018-07-20T00:05:17.086Z,26.00
2018-07-20T00:07:43.568Z,26.00
2018-07-20T00:10:10.024Z,26.00
2018-07-20T00:12:36.518Z,26.00
2018-07-20T00:15:02.984Z,26.00
2018-07-20T00:17:29.425Z,26.00
2018-07-20T00:19:55.854Z,26.00
2018-07-20T00:22:22.824Z,26.00
2018-07-20T00:24:49.324Z,26.00
2018-07-20T00:27:15.830Z,26.00
2018-07-20T00:29:42.288Z,26.00
2018-07-20T00:32:08.782Z,26.00
2018-07-20T00:34:35.236Z,26.00
2018-07-20T00:37:01.702Z,26.00
2018-07-20T00:39:28.152Z,26.00
2018-07-20T00:41:54.664Z,26.00
2018-07-20T00:44:21.176Z,26.00
2018-07-20T00:46:47.676Z,26.00
2018-07-20T00:49:14.155Z,26.00
2018-07-20T00:51:40.632Z,26.00
2018-07-20T00:54:07.147Z,26.00
2018-07-20T00:56:34.177Z,26.00
2018-07-20T00:59:00.636Z,26.00
2018-07-20T01:01:27.104Z,26.00
2018-07-20T01:03:53.640Z,26.00
2018-07-20T01:06:20.132Z,26.00
2018-07-20T01:08:46.686Z,26.00
2018-07-20T01:11:13.190Z,26.00
2018-07-20T01:13:39.690Z,26.00
2018-07-20T01:16:06.169Z,26.00
2018-07-20T01:18:32.710Z,26.00
2018-07-20T01:20:59.197Z,26.00
2018-07-20T01:23:26.307Z,26.00
2018-07-20T01:25:52.832Z,25.90
2018-07-20T01:28:19.333Z,26.00
2018-07-20T01:30:45.818Z,25.90
2018-07-20T01:33:12.285Z,25.90
2018-07-20T01:35:38.771Z,25.90
2018-07-20T01:38:05.290Z,25.90
2018-07-20T01:40:31.779Z,25.90
2018-07-20T01:42:58.270Z,25.90
2018-07-20T01:45:24.777Z,26.00
2018-07-20T01:47:51.408Z,25.90
2018-07-20T01:50:17.891Z,26.00
2018-07-20T01:52:45.113Z,25.90
2018-07-20T01:55:11.615Z,26.00
2018-07-20T01:57:38.139Z,26.00
2018-07-20T02:00:04.598Z,26.00
2018-07-20T02:02:31.056Z,26.00
2018-07-20T02:04:57.527Z,25.90
2018-07-20T02:07:24.151Z,25.90
2018-07-20T02:09:50.670Z,25.90
2018-07-20T02:12:17.127Z,25.90
2018-07-20T02:14:43.634Z,25.90
2018-07-20T02:17:10.101Z,25.90
2018-07-20T02:19:37.097Z,25.90
2018-07-20T02:22:03.559Z,25.90
2018-07-20T02:24:30.047Z,25.90
2018-07-20T02:26:56.494Z,25.90
2018-07-20T02:29:23.535Z,25.90
2018-07-20T02:31:50.115Z,25.90
2018-07-20T02:34:16.622Z,25.90
2018-07-20T02:36:43.080Z,25.90
2018-07-20T02:39:11.915Z,25.90
2018-07-20T02:41:38.625Z,25.90
2018-07-20T02:44:05.117Z,25.90
2018-07-20T02:46:31.611Z,25.90
2018-07-20T02:48:58.117Z,25.90
2018-07-20T02:51:24.640Z,25.90
2018-07-20T02:53:51.767Z,25.90
2018-07-20T02:56:19.178Z,25.90
2018-07-20T02:58:45.648Z,25.90
2018-07-20T03:01:12.153Z,25.90
2018-07-20T03:03:38.590Z,25.90
2018-07-20T03:06:06.150Z,25.90
2018-07-20T03:08:32.613Z,25.90
2018-07-20T03:10:59.608Z,25.90
2018-07-20T03:13:26.061Z,25.90
2018-07-20T03:15:52.567Z,25.90
2018-07-20T03:18:19.123Z,25.90
2018-07-20T03:20:45.562Z,25.90
2018-07-20T03:23:12.067Z,25.90
2018-07-20T03:25:38.508Z,25.90
2018-07-20T03:28:04.968Z,25.90
2018-07-20T03:30:31.470Z,25.80
2018-07-20T03:32:58.043Z,25.80
2018-07-20T03:35:24.487Z,25.80
2018-07-20T03:37:50.958Z,25.90
2018-07-20T03:40:17.455Z,25.80
2018-07-20T03:42:43.915Z,25.80
2018-07-20T03:45:10.396Z,25.90
2018-07-20T03:47:36.900Z,25.90
2018-07-20T03:50:03.368Z,25.90
2018-07-20T03:52:29.873Z,25.80
2018-07-20T03:54:56.350Z,25.90
2018-07-20T03:57:23.445Z,25.80
2018-07-20T03:59:49.920Z,25.90
2018-07-20T04:02:16.432Z,25.80
2018-07-20T04:04:42.946Z,25.90
2018-07-20T04:07:09.432Z,25.80
2018-07-20T04:09:36.410Z,25.80
2018-07-20T04:12:02.851Z,25.90
2018-07-20T04:14:29.314Z,25.90
2018-07-20T04:16:55.809Z,25.80
2018-07-20T04:19:22.220Z,25.90
2018-07-20T04:21:49.330Z,25.80
2018-07-20T04:26:42.744Z,25.80
2018-07-20T04:29:09.244Z,25.80
2018-07-20T04:31:35.706Z,25.80
2018-07-20T04:34:02.212Z,25.80
2018-07-20T04:36:28.749Z,25.80
2018-07-20T04:38:55.148Z,25.80
2018-07-20T04:41:21.602Z,25.80
2018-07-20T04:43:48.095Z,25.90
2018-07-20T04:46:14.520Z,25.90
2018-07-20T04:48:41.046Z,25.80
2018-07-20T04:51:07.538Z,25.80
2018-07-20T04:56:01.087Z,25.70
2018-07-20T04:58:27.571Z,25.80
2018-07-20T05:00:54.055Z,25.70
2018-07-20T05:03:20.510Z,25.70
2018-07-20T05:05:46.984Z,25.70
2018-07-20T05:08:13.566Z,25.70
2018-07-20T05:10:40.106Z,25.60
2018-07-20T05:13:06.591Z,25.70
2018-07-20T05:15:33.152Z,25.70
2018-07-20T05:17:59.599Z,25.70
2018-07-20T05:20:26.411Z,25.70
2018-07-20T05:22:53.382Z,25.70
2018-07-20T05:25:19.833Z,25.70
2018-07-20T05:27:46.286Z,25.70
2018-07-20T05:30:12.738Z,25.70
2018-07-20T05:32:39.375Z,25.70
2018-07-20T05:35:05.848Z,25.70
2018-07-20T05:37:32.362Z,25.70
2018-07-20T05:39:58.972Z,25.60
2018-07-20T05:42:25.477Z,25.70
2018-07-20T05:44:52.571Z,25.70
2018-07-20T05:47:19.087Z,25.70
2018-07-20T05:49:45.555Z,25.70
2018-07-20T05:52:12.053Z,25.70
2018-07-20T05:54:38.543Z,25.70
2018-07-20T05:57:05.018Z,25.70
2018-07-20T05:59:31.457Z,25.70
2018-07-20T06:01:57.922Z,25.70
2018-07-20T06:04:24.387Z,25.70
2018-07-20T06:06:50.905Z,26.20
2018-07-20T06:11:44.403Z,25.70
2018-07-20T06:14:10.936Z,25.70
2018-07-20T06:16:38.723Z,25.70
2018-07-20T06:19:05.227Z,25.70
2018-07-20T06:21:31.680Z,25.70
2018-07-20T06:23:58.215Z,25.70
2018-07-20T06:26:24.857Z,25.70
2018-07-20T06:28:51.334Z,25.70
2018-07-20T06:31:17.820Z,25.70
2018-07-20T06:33:44.269Z,25.80
2018-07-20T06:36:10.747Z,25.80
2018-07-20T06:38:37.252Z,25.80
2018-07-20T06:41:03.717Z,25.80
2018-07-20T06:43:30.173Z,25.80
2018-07-20T06:45:56.643Z,25.80
2018-07-20T06:48:23.128Z,25.80
2018-07-20T06:50:49.635Z,25.80
2018-07-20T06:53:16.091Z,25.80
2018-07-20T06:55:42.551Z,25.80
2018-07-20T06:58:09.036Z,25.80
2018-07-20T07:00:35.471Z,25.80
2018-07-20T07:03:01.948Z,25.80
2018-07-20T07:05:28.438Z,25.80
2018-07-20T07:07:54.924Z,25.80
2018-07-20T07:10:21.404Z,25.80
2018-07-20T07:12:47.945Z,25.80
2018-07-20T07:15:14.463Z,25.80
2018-07-20T07:17:41.287Z,25.80
2018-07-20T07:20:07.742Z,25.80
2018-07-20T07:22:34.188Z,25.80
2018-07-20T07:25:00.634Z,25.80
2018-07-20T07:27:27.109Z,25.80
2018-07-20T07:29:53.680Z,25.80
2018-07-20T07:32:20.152Z,25.80
2018-07-20T07:34:46.942Z,25.70
2018-07-20T07:37:13.448Z,25.70
2018-07-20T07:39:39.950Z,25.70
2018-07-20T07:42:06.501Z,25.70
2018-07-20T07:44:32.936Z,25.70
2018-07-20T07:46:59.420Z,25.60
2018-07-20T07:49:26.594Z,25.60
2018-07-20T07:51:53.174Z,25.60
2018-07-20T07:54:19.836Z,25.70
2018-07-20T07:56:46.339Z,25.70
2018-07-20T07:59:12.802Z,25.70
2018-07-20T08:01:39.889Z,25.60
2018-07-20T08:04:06.460Z,25.60
2018-07-20T08:06:32.914Z,25.70
2018-07-20T08:09:00.039Z,25.60
2018-07-20T08:11:26.490Z,25.60
2018-07-20T08:13:52.980Z,25.70
2018-07-20T08:16:19.492Z,25.70
2018-07-20T08:18:45.958Z,25.70
2018-07-20T08:21:12.420Z,25.70
2018-07-20T08:23:38.928Z,25.70
2018-07-20T08:26:06.060Z,25.70
2018-07-20T08:28:32.522Z,25.60
2018-07-20T08:30:59.046Z,25.70
2018-07-20T08:33:25.506Z,25.70
2018-07-20T08:35:51.974Z,25.70
2018-07-20T08:38:18.431Z,25.70
2018-07-20T08:40:44.870Z,25.70
2018-07-20T08:43:11.394Z,25.60
2018-07-20T08:45:37.890Z,25.70
2018-07-20T08:48:04.356Z,25.70
2018-07-20T08:50:30.819Z,25.70
2018-07-20T08:52:57.281Z,25.60
2018-07-20T08:55:23.787Z,25.70
2018-07-20T08:57:50.278Z,25.70
2018-07-20T09:00:16.740Z,25.70
2018-07-20T09:02:43.196Z,25.70
2018-07-20T09:05:09.672Z,25.60
2018-07-20T09:07:36.192Z,25.60
2018-07-20T09:10:03.387Z,25.60
2018-07-20T09:12:29.895Z,25.70
2018-07-20T09:14:56.362Z,25.70
2018-07-20T09:17:22.884Z,25.70
2018-07-20T09:19:49.995Z,25.60
2018-07-20T09:22:16.463Z,25.70
2018-07-20T09:24:43.051Z,25.70
2018-07-20T09:27:10.065Z,25.70
2018-07-20T09:29:37.626Z,25.80
2018-07-20T09:32:04.054Z,26.00
2018-07-20T09:34:30.550Z,26.00
2018-07-20T09:36:57.031Z,26.00
2018-07-20T09:39:24.258Z,26.00
2018-07-20T09:41:51.320Z,26.10
2018-07-20T09:44:18.179Z,26.10
2018-07-20T09:46:44.656Z,26.10
2018-07-20T09:49:12.022Z,26.20
2018-07-20T09:54:05.552Z,26.10
2018-07-20T09:56:32.035Z,26.10
2018-07-20T09:58:58.488Z,26.10
2018-07-20T10:01:24.974Z,26.10
2018-07-20T10:03:51.445Z,26.10
2018-07-20T10:06:17.932Z,26.20
2018-07-20T10:08:44.427Z,26.20
2018-07-20T10:11:11.533Z,26.20
2018-07-20T10:13:38.500Z,26.20
2018-07-20T10:16:04.955Z,26.30
2018-07-20T10:18:31.450Z,26.20
2018-07-20T10:20:58.054Z,26.20
2018-07-20T10:23:24.521Z,26.30
2018-07-20T10:25:51.164Z,26.30
2018-07-20T10:28:17.655Z,26.30
2018-07-20T10:30:44.241Z,26.30
2018-07-20T10:33:10.667Z,26.30
2018-07-20T10:35:37.592Z,26.30
2018-07-20T10:38:04.705Z,26.30
2018-07-20T10:40:31.191Z,26.30
2018-07-20T10:42:58.371Z,26.30
2018-07-20T10:45:25.153Z,26.30
2018-07-20T10:47:52.325Z,26.30
2018-07-20T10:50:18.792Z,26.30
2018-07-20T10:52:45.239Z,26.30
2018-07-20T10:55:12.288Z,26.30
2018-07-20T10:57:38.789Z,26.40
2018-07-20T11:00:05.235Z,26.30
2018-07-20T11:02:31.695Z,26.30
2018-07-20T11:04:58.163Z,26.40
2018-07-20T11:07:24.655Z,26.30
2018-07-20T11:09:51.102Z,26.30
2018-07-20T11:12:17.703Z,26.30
2018-07-20T11:14:44.189Z,26.30
2018-07-20T11:17:10.652Z,26.30
2018-07-20T11:19:37.139Z,26.30
2018-07-20T11:22:03.732Z,26.30
2018-07-20T11:24:30.168Z,26.30
2018-07-20T11:26:56.628Z,26.30
2018-07-20T11:29:23.094Z,26.30
2018-07-20T11:31:49.682Z,26.30
2018-07-20T11:34:16.138Z,26.30
2018-07-20T11:36:42.941Z,26.40
2018-07-20T11:39:09.964Z,26.40
2018-07-20T11:41:37.094Z,26.40
2018-07-20T11:44:03.824Z,26.40
2018-07-20T11:48:57.228Z,26.20
2018-07-20T11:51:23.693Z,26.20
2018-07-20T11:53:50.188Z,26.20
2018-07-20T11:56:17.393Z,26.10
2018-07-20T11:58:43.904Z,26.10
2018-07-20T12:01:10.420Z,26.10
2018-07-20T12:03:36.911Z,26.20
2018-07-20T12:06:04.326Z,26.20
2018-07-20T12:08:30.822Z,26.20
2018-07-20T12:10:57.264Z,26.20
2018-07-20T12:13:23.720Z,26.20
2018-07-20T12:15:50.157Z,26.30
2018-07-20T12:18:16.616Z,26.30
2018-07-20T12:20:43.106Z,26.20
2018-07-20T12:23:09.586Z,26.30
2018-07-20T12:25:37.812Z,26.20
2018-07-20T12:28:04.290Z,26.20
2018-07-20T12:30:31.338Z,26.20
2018-07-20T12:32:59.217Z,26.20
2018-07-20T12:35:25.776Z,26.20
2018-07-20T12:37:53.038Z,26.20
2018-07-20T12:40:19.562Z,26.20
2018-07-20T12:42:46.094Z,26.20
2018-07-20T12:45:12.636Z,26.10
2018-07-20T12:47:40.145Z,26.10
2018-07-20T12:50:06.766Z,26.20
2018-07-20T12:52:33.166Z,26.20
2018-07-20T12:54:59.626Z,26.10
2018-07-20T12:57:26.118Z,26.20
2018-07-20T12:59:52.698Z,26.20
2018-07-20T13:02:20.205Z,26.20
2018-07-20T13:04:46.706Z,26.20
2018-07-20T13:07:13.160Z,26.20
2018-07-20T13:09:39.657Z,26.20
2018-07-20T13:12:06.224Z,26.20
2018-07-20T13:14:32.649Z,26.20
2018-07-20T13:16:59.118Z,26.10
2018-07-20T13:19:25.581Z,26.20
2018-07-20T13:21:52.142Z,26.20
2018-07-20T13:24:18.608Z,26.10
2018-07-20T13:26:45.234Z,26.20
2018-07-20T13:36:24.271Z,26.10
2018-07-20T13:41:17.749Z,26.20
2018-07-20T13:43:44.227Z,26.20
2018-07-20T13:46:10.672Z,26.20
2018-07-20T13:48:37.221Z,26.20
2018-07-20T13:51:03.679Z,26.20
2018-07-20T13:53:30.125Z,26.20
2018-07-20T13:55:56.565Z,26.10
2018-07-20T13:58:23.137Z,26.10
2018-07-20T14:00:49.601Z,26.20
2018-07-20T14:03:16.085Z,26.20
2018-07-20T14:05:42.565Z,26.20
2018-07-20T14:08:09.315Z,26.20
2018-07-20T14:10:35.805Z,26.20
2018-07-20T14:13:02.279Z,26.20
2018-07-20T14:15:28.888Z,26.20
2018-07-20T14:17:55.375Z,26.20
2018-07-20T14:20:21.894Z,26.20
2018-07-20T14:22:48.362Z,26.30
2018-07-20T14:25:14.804Z,26.20
2018-07-20T14:27:41.292Z,26.20
2018-07-20T14:30:07.771Z,26.20
2018-07-20T14:32:34.311Z,26.20
2018-07-20T14:37:27.830Z,26.20
2018-07-20T14:39:54.926Z,26.30
2018-07-20T14:42:21.945Z,26.20
2018-07-20T14:44:48.547Z,26.20
2018-07-20T14:47:15.001Z,26.20
2018-07-20T14:49:41.504Z,26.20
2018-07-20T14:52:08.053Z,26.30
2018-07-20T14:54:34.538Z,25.30
2018-07-20T14:57:01.099Z,26.30
2018-07-20T14:59:27.591Z,26.30
2018-07-20T15:01:54.129Z,26.20
2018-07-20T15:04:20.562Z,26.30
2018-07-20T15:06:47.079Z,26.30
2018-07-20T15:09:13.536Z,26.20
2018-07-20T15:11:40.358Z,26.30
2018-07-20T15:14:07.306Z,26.20
2018-07-20T15:16:33.800Z,26.20
2018-07-20T15:19:00.310Z,26.30
2018-07-20T15:21:26.791Z,26.30
2018-07-20T15:23:53.238Z,26.30
2018-07-20T15:26:19.706Z,26.20
2018-07-20T15:28:46.191Z,26.20
2018-07-20T15:31:12.661Z,26.30
2018-07-20T15:33:39.161Z,26.20
2018-07-20T15:36:06.378Z,26.20
2018-07-20T15:38:32.831Z,26.30
2018-07-20T15:40:59.325Z,26.30
2018-07-20T15:43:25.788Z,26.30
2018-07-20T15:46:05.627Z,26.30
2018-07-20T15:48:18.734Z,26.30
2018-07-20T15:50:45.301Z,26.30
2018-07-20T15:55:38.264Z,26.30
2018-07-20T15:58:04.785Z,26.30
2018-07-20T16:00:31.241Z,26.30
2018-07-20T16:02:57.879Z,26.30
2018-07-20T16:05:24.360Z,26.30
2018-07-20T16:07:50.918Z,26.30
2018-07-20T16:10:17.395Z,26.30
2018-07-20T16:12:43.882Z,26.30
2018-07-20T16:15:10.391Z,26.30
2018-07-20T16:17:36.878Z,26.30
2018-07-20T16:20:04.194Z,26.30
2018-07-20T16:22:30.638Z,26.30
2018-07-20T16:24:57.166Z,26.30
2018-07-20T16:27:23.663Z,26.30
2018-07-20T16:29:50.165Z,26.30
2018-07-20T16:32:16.654Z,26.30
2018-07-20T16:37:10.246Z,26.30
2018-07-20T16:39:36.718Z,26.30
2018-07-20T16:42:03.184Z,26.30
2018-07-20T16:44:29.693Z,26.40
2018-07-20T16:46:56.162Z,26.40
2018-07-20T16:49:23.554Z,26.30
2018-07-20T16:51:50.122Z,26.30
2018-07-20T16:54:16.618Z,26.40
2018-07-20T16:56:43.146Z,26.30
2018-07-20T16:59:09.686Z,26.30
2018-07-20T17:01:37.111Z,26.30
2018-07-20T17:06:30.552Z,26.30
2018-07-20T17:08:57.054Z,26.40
2018-07-20T17:11:23.554Z,26.30
2018-07-20T17:13:50.046Z,26.30
2018-07-20T17:16:17.492Z,26.30
2018-07-20T17:18:44.039Z,26.30
2018-07-20T17:21:10.534Z,26.30
2018-07-20T17:23:37.015Z,26.30
2018-07-20T17:26:03.620Z,26.30
2018-07-20T17:28:30.150Z,26.30
2018-07-20T17:30:56.626Z,26.30
2018-07-20T17:33:23.123Z,26.30
2018-07-20T17:35:49.590Z,26.30
2018-07-20T17:38:16.148Z,26.30
2018-07-20T17:40:42.614Z,26.30
2018-07-20T17:43:09.106Z,26.30
2018-07-20T17:45:35.598Z,26.30
2018-07-20T17:48:02.352Z,26.30
2018-07-20T17:50:29.436Z,26.30
2018-07-20T17:52:55.926Z,26.30
2018-07-20T17:55:22.459Z,26.30
2018-07-20T17:57:49.082Z,26.30
2018-07-20T18:00:15.553Z,26.30
2018-07-20T18:02:42.065Z,26.30
2018-07-20T18:05:08.549Z,26.30
2018-07-20T18:07:35.009Z,26.30
2018-07-20T18:10:01.579Z,26.30
2018-07-20T18:12:28.082Z,26.30
2018-07-20T18:14:54.575Z,26.30
2018-07-20T18:17:21.052Z,26.30
2018-07-20T18:19:47.609Z,26.30
2018-07-20T18:22:14.736Z,26.30
2018-07-20T18:24:41.243Z,26.30
2018-07-20T18:27:07.817Z,26.30
2018-07-20T18:29:34.306Z,26.30
2018-07-20T18:32:00.779Z,26.30
2018-07-20T18:34:27.267Z,26.30
2018-07-20T18:36:53.758Z,26.30
2018-07-20T18:39:20.202Z,26.30
2018-07-20T18:41:46.676Z,26.30
2018-07-20T18:44:13.141Z,26.30
2018-07-20T18:46:39.631Z,26.30
2018-07-20T18:49:06.631Z,26.30
2018-07-20T18:51:33.113Z,26.30
2018-07-20T18:53:59.611Z,26.30
2018-07-20T18:56:26.065Z,26.30
2018-07-20T18:58:52.543Z,26.30
2018-07-20T19:01:19.017Z,26.30
2018-07-20T19:03:45.530Z,26.30
2018-07-20T19:06:11.985Z,26.30
2018-07-20T19:08:39.125Z,26.30
2018-07-20T19:11:05.608Z,26.30
2018-07-20T19:13:32.106Z,26.30
2018-07-20T19:15:58.859Z,26.30
2018-07-20T19:18:25.415Z,26.30
2018-07-20T19:20:51.900Z,26.20
2018-07-20T19:23:18.392Z,26.20
2018-07-20T19:25:44.837Z,26.20
2018-07-20T19:28:11.325Z,26.30
2018-07-20T19:30:37.796Z,26.30
2018-07-20T19:33:04.265Z,26.30
2018-07-20T19:35:31.522Z,26.30
2018-07-20T19:37:58.009Z,26.30
2018-07-20T19:40:24.529Z,26.30
2018-07-20T19:42:51.026Z,26.30
2018-07-20T19:45:17.526Z,26.30
2018-07-20T19:47:44.046Z,26.30
2018-07-20T19:50:10.491Z,26.30
2018-07-20T19:52:36.997Z,26.20
2018-07-20T19:55:03.512Z,26.30
2018-07-20T19:57:29.994Z,26.30
2018-07-20T19:59:56.487Z,26.30
2018-07-20T20:02:22.975Z,26.30
2018-07-20T20:04:49.440Z,26.30
2018-07-20T20:07:15.895Z,26.30
2018-07-20T20:09:42.352Z,26.30
2018-07-20T20:12:08.831Z,26.30
2018-07-20T20:14:35.302Z,26.30
2018-07-20T20:17:02.070Z,26.20
2018-07-20T20:19:28.534Z,26.30
2018-07-20T20:21:55.038Z,26.20
2018-07-20T20:24:21.643Z,26.30
2018-07-20T20:26:48.176Z,26.30
2018-07-20T20:29:14.685Z,26.30
2018-07-20T20:31:41.212Z,26.30
2018-07-20T20:34:07.852Z,26.30
2018-07-20T20:36:34.364Z,26.30
2018-07-20T20:39:00.866Z,26.30
2018-07-20T20:41:27.331Z,26.30
2018-07-20T20:43:53.845Z,26.30
2018-07-20T20:46:21.320Z,26.30
2018-07-20T20:51:14.839Z,26.30
2018-07-20T20:53:41.357Z,26.30
2018-07-20T20:56:07.869Z,26.30
2018-07-20T20:58:34.408Z,26.30
2018-07-20T21:01:00.892Z,26.30
2018-07-20T21:03:27.379Z,26.30
2018-07-20T21:05:53.930Z,26.30
2018-07-20T21:08:20.392Z,26.30
2018-07-20T21:10:46.923Z,26.30
2018-07-20T21:13:13.461Z,26.30
2018-07-20T21:15:39.947Z,26.30
2018-07-20T21:18:06.556Z,26.30
2018-07-20T21:20:33.069Z,26.30
2018-07-20T21:22:59.527Z,26.30
2018-07-20T21:25:25.991Z,26.30
2018-07-20T21:27:52.519Z,26.30
2018-07-20T21:30:18.980Z,26.30
2018-07-20T21:32:45.436Z,26.30
2018-07-20T21:35:11.939Z,26.30
2018-07-20T21:37:38.418Z,26.30
2018-07-20T21:40:04.887Z,26.30
2018-07-20T21:42:31.387Z,26.30
2018-07-20T21:44:57.892Z,26.30
2018-07-20T21:47:24.400Z,26.30
2018-07-20T21:49:50.878Z,26.30
2018-07-20T21:52:17.396Z,26.30
2018-07-20T21:54:43.919Z,26.30
2018-07-20T21:57:10.435Z,26.30
2018-07-20T21:59:36.911Z,26.30
2018-07-20T22:02:03.421Z,26.30
2018-07-20T22:04:29.908Z,26.30
2018-07-20T22:06:56.391Z,26.30
2018-07-20T22:11:50.022Z,26.30
2018-07-20T22:14:16.511Z,26.30
2018-07-20T22:16:42.983Z,26.30
2018-07-20T22:19:09.473Z,26.30
2018-07-20T22:21:35.959Z,26.30
2018-07-20T22:24:02.431Z,26.30
2018-07-20T22:26:29.184Z,26.30
2018-07-20T22:28:55.639Z,26.30
2018-07-20T22:31:22.765Z,26.30
2018-07-20T22:33:49.227Z,26.30
2018-07-20T22:36:18.858Z,26.30
2018-07-20T22:38:45.327Z,26.30
2018-07-20T22:41:11.811Z,26.30
2018-07-20T22:43:38.278Z,26.30
2018-07-20T22:46:04.761Z,26.30
2018-07-20T22:48:31.219Z,26.30
2018-07-20T22:50:57.676Z,26.30
2018-07-20T22:53:24.212Z,26.30
2018-07-20T22:55:50.691Z,26.30
2018-07-20T22:58:17.660Z,26.30
2018-07-20T23:00:44.124Z,26.30
2018-07-20T23:03:10.577Z,26.30
2018-07-20T23:05:37.071Z,26.30
2018-07-20T23:08:03.784Z,26.30
2018-07-20T23:10:30.826Z,26.30
2018-07-20T23:12:57.376Z,26.30
2018-07-20T23:15:23.879Z,26.30
2018-07-20T23:17:50.324Z,26.30
2018-07-20T23:20:16.796Z,26.30
2018-07-20T23:22:43.770Z,26.30
2018-07-20T23:25:10.258Z,26.30
2018-07-20T23:27:36.730Z,26.30
2018-07-20T23:30:03.216Z,26.30
2018-07-20T23:32:29.682Z,26.30
2018-07-20T23:34:56.174Z,26.30
2018-07-20T23:37:23.576Z,26.30
2018-07-20T23:39:50.028Z,26.30
2018-07-20T23:42:16.482Z,26.30
2018-07-20T23:44:42.964Z,26.30
2018-07-20T23:47:09.423Z,26.30
2018-07-20T23:49:35.869Z,26.30
2018-07-20T23:52:03.004Z,26.30
2018-07-20T23:54:29.472Z,26.30
2018-07-20T23:59:23.014Z,26.30
